Time;durP1;ratioP1;P1;durP2;ratioP2;P2;SDS_P1;SDS_P2;PMS_P1;PMS_P2;Temp;Humidity;BMP_temperature;BMP_pressure;BME280_temperature;BME280_humidity;BME280_pressure;Samples;Min_cycle;Max_cycle;Signal;HPM_P1;HPM_P2
2023/06/09 00:02:58;;;;;;;7.80;6.35;;;15.60;99.90;;;;;;7345256;32;20178;-55
2023/06/09 00:07:04;;;;;;;11.85;6.75;;;15.40;99.90;;;;;;7340355;32;20159;-55
2023/06/09 00:11:06;;;;;;;7.68;6.80;;;15.30;99.90;;;;;;7341427;32;21425;-55
2023/06/09 00:15:11;;;;;;;6.95;6.28;;;15.20;99.90;;;;;;7335167;32;20673;-56
2023/06/09 00:19:15;;;;;;;8.73;6.68;;;15.10;99.90;;;;;;7337754;32;20705;-55
2023/06/09 00:23:17;;;;;;;9.40;7.12;;;15.10;99.90;;;;;;7344089;32;20100;-55
2023/06/09 00:27:19;;;;;;;8.68;6.55;;;15.00;99.90;;;;;;7337663;32;20255;-55
2023/06/09 00:31:21;;;;;;;7.78;6.97;;;14.90;99.90;;;;;;7343062;32;20536;-55
2023/06/09 00:35:23;;;;;;;6.75;6.10;;;14.80;99.90;;;;;;7337941;32;20102;-55
2023/06/09 00:39:24;;;;;;;7.93;6.87;;;14.70;99.90;;;;;;7343306;32;20458;-55
2023/06/09 00:43:26;;;;;;;9.80;6.97;;;14.60;99.90;;;;;;7346559;32;20142;-55
2023/06/09 00:47:28;;;;;;;8.52;6.90;;;14.60;99.90;;;;;;7334566;32;20184;-55
2023/06/09 00:51:32;;;;;;;10.90;7.57;;;14.50;99.90;;;;;;7342498;32;20114;-55
2023/06/09 00:55:38;;;;;;;8.85;7.70;;;14.40;99.90;;;;;;7334808;32;20172;-55
2023/06/09 00:59:40;;;;;;;8.32;7.22;;;14.40;99.90;;;;;;7339996;32;21175;-55
2023/06/09 01:03:41;;;;;;;10.25;7.30;;;14.20;99.90;;;;;;7344104;32;20134;-55
2023/06/09 01:08:01;;;;;;;8.73;7.18;;;14.20;99.90;;;;;;7343800;32;20103;-55
2023/06/09 01:12:06;;;;;;;9.43;7.53;;;14.10;99.90;;;;;;7345797;32;20162;-55
2023/06/09 01:16:30;;;;;;;8.50;7.40;;;14.00;99.90;;;;;;7334719;32;20183;-55
2023/06/09 01:20:45;;;;;;;8.30;7.50;;;14.00;99.90;;;;;;7338096;32;20709;-55
2023/06/09 01:24:58;;;;;;;10.85;8.07;;;14.00;99.90;;;;;;7337756;32;20482;-54
2023/06/09 01:29:03;;;;;;;10.40;8.05;;;14.00;99.90;;;;;;7338261;32;20301;-55
2023/06/09 01:33:08;;;;;;;9.18;7.80;;;13.90;99.90;;;;;;7339547;32;20106;-55
2023/06/09 01:37:12;;;;;;;8.52;6.85;;;13.90;99.90;;;;;;7335656;32;20267;-55
2023/06/09 01:41:14;;;;;;;9.00;8.10;;;13.90;99.90;;;;;;7340499;32;20185;-56
2023/06/09 01:45:16;;;;;;;8.00;7.20;;;13.80;99.90;;;;;;7334015;32;20317;-55
2023/06/09 01:49:27;;;;;;;10.07;8.52;;;13.80;99.90;;;;;;7338113;32;20125;-56
2023/06/09 01:53:41;;;;;;;9.60;8.43;;;13.70;99.90;;;;;;7333553;32;20530;-57
2023/06/09 01:58:06;;;;;;;10.70;8.65;;;13.70;99.90;;;;;;7337079;32;20122;-56
2023/06/09 02:02:11;;;;;;;11.10;8.57;;;13.70;99.90;;;;;;7337686;32;20120;-55
2023/06/09 02:06:14;;;;;;;8.95;8.02;;;13.60;99.90;;;;;;7341737;32;20167;-55
2023/06/09 02:10:17;;;;;;;12.75;9.18;;;13.60;99.90;;;;;;7343393;32;20166;-54
2023/06/09 02:14:19;;;;;;;10.57;8.48;;;13.70;99.90;;;;;;7342070;32;20127;-55
2023/06/09 02:18:22;;;;;;;10.10;8.35;;;13.70;99.90;;;;;;7337413;32;20231;-56
2023/06/09 02:22:24;;;;;;;10.70;8.98;;;13.60;99.90;;;;;;7342360;32;20111;-55
2023/06/09 02:26:26;;;;;;;10.05;9.05;;;13.50;99.90;;;;;;7344165;32;20111;-55
2023/06/09 02:30:28;;;;;;;10.82;9.73;;;13.50;99.90;;;;;;7347158;32;20107;-55
2023/06/09 02:34:30;;;;;;;11.07;9.98;;;13.60;99.90;;;;;;7343659;32;20212;-55
2023/06/09 02:38:32;;;;;;;12.57;10.02;;;13.60;99.90;;;;;;7339540;32;20111;-55
2023/06/09 02:42:34;;;;;;;14.68;9.43;;;13.60;99.90;;;;;;7345209;32;20111;-54
2023/06/09 02:46:36;;;;;;;10.38;9.20;;;13.60;99.90;;;;;;7346443;32;20194;-55
2023/06/09 02:50:38;;;;;;;11.60;9.23;;;13.40;99.90;;;;;;7343152;32;20672;-54
2023/06/09 02:54:40;;;;;;;9.90;8.88;;;13.40;99.90;;;;;;7349578;32;20135;-56
2023/06/09 02:58:42;;;;;;;13.95;9.60;;;13.30;99.90;;;;;;7344424;32;20134;-54
2023/06/09 03:02:46;;;;;;;10.18;8.85;;;13.30;99.90;;;;;;7345583;32;20159;-55
2023/06/09 03:06:49;;;;;;;11.20;10.10;;;13.30;99.90;;;;;;7340038;32;20195;-57
2023/06/09 03:10:52;;;;;;;11.12;9.98;;;13.30;99.90;;;;;;7342569;32;20616;-55
2023/06/09 03:14:54;;;;;;;11.88;10.50;;;13.30;99.90;;;;;;7340157;32;20108;-54
2023/06/09 03:18:56;;;;;;;12.93;10.30;;;13.20;99.90;;;;;;7342527;32;20168;-55
2023/06/09 03:22:58;;;;;;;11.30;10.20;;;13.10;99.90;;;;;;7342324;32;20337;-55
2023/06/09 03:26:59;;;;;;;11.48;10.27;;;13.10;99.90;;;;;;7341691;32;20748;-56
2023/06/09 03:31:01;;;;;;;12.27;10.98;;;13.10;99.90;;;;;;7341063;32;20127;-55
2023/06/09 03:35:03;;;;;;;10.60;9.60;;;13.20;99.90;;;;;;7343930;32;20241;-56
2023/06/09 03:39:06;;;;;;;12.35;10.50;;;13.10;99.90;;;;;;7343423;32;20104;-55
2023/06/09 03:43:08;;;;;;;10.23;9.13;;;13.10;99.90;;;;;;7340770;32;20179;-56
2023/06/09 03:47:10;;;;;;;12.15;10.23;;;13.10;99.90;;;;;;7349035;32;20593;-56
2023/06/09 03:51:11;;;;;;;13.95;10.93;;;13.10;99.90;;;;;;7346732;32;20252;-55
2023/06/09 03:55:13;;;;;;;13.32;10.30;;;13.20;99.90;;;;;;7335272;32;20182;-55
2023/06/09 03:59:15;;;;;;;14.75;11.52;;;13.20;99.90;;;;;;7348010;32;20112;-55
2023/06/09 04:03:18;;;;;;;12.48;11.27;;;13.20;99.90;;;;;;7339987;32;20160;-55
2023/06/09 04:07:20;;;;;;;11.75;10.55;;;13.20;99.90;;;;;;7341833;32;20205;-55
2023/06/09 04:11:22;;;;;;;11.48;10.27;;;13.20;99.90;;;;;;7343954;32;20234;-55
2023/06/09 04:15:23;;;;;;;11.93;10.82;;;13.20;99.90;;;;;;7342271;32;20124;-55
2023/06/09 04:19:25;;;;;;;12.37;11.07;;;13.30;99.90;;;;;;7336022;32;20111;-54
2023/06/09 04:23:27;;;;;;;11.63;10.40;;;13.40;99.90;;;;;;7327668;32;20139;-55
2023/06/09 04:27:30;;;;;;;13.27;10.48;;;13.50;99.90;;;;;;7344214;32;20325;-55
2023/06/09 04:31:33;;;;;;;13.65;10.55;;;13.60;99.90;;;;;;7341968;32;20529;-55
2023/06/09 04:35:35;;;;;;;11.02;9.98;;;13.80;99.90;;;;;;7347403;32;20168;-54
2023/06/09 04:39:37;;;;;;;12.40;10.52;;;14.10;99.90;;;;;;7338845;32;20244;-55
2023/06/09 04:43:42;;;;;;;12.23;10.32;;;14.40;99.90;;;;;;7337551;32;20439;-56
2023/06/09 04:47:43;;;;;;;12.70;10.30;;;14.60;99.90;;;;;;7337004;32;20403;-57
2023/06/09 04:51:48;;;;;;;11.40;10.20;;;15.00;99.90;;;;;;7338153;32;20135;-57
2023/06/09 04:55:52;;;;;;;14.52;10.73;;;15.40;99.90;;;;;;7332639;32;20125;-57
2023/06/09 04:59:53;;;;;;;12.18;9.82;;;15.80;99.90;;;;;;7336229;32;20479;-56
2023/06/09 05:03:55;;;;;;;11.43;9.80;;;16.40;99.90;;;;;;7340733;32;20177;-56
2023/06/09 05:07:57;;;;;;;11.52;8.90;;;17.10;99.90;;;;;;7336846;32;20461;-57
2023/06/09 05:11:59;;;;;;;14.65;9.80;;;17.70;99.90;;;;;;7335343;32;20189;-57
2023/06/09 05:16:01;;;;;;;10.68;8.93;;;18.10;99.90;;;;;;7338019;32;20200;-56
2023/06/09 05:20:06;;;;;;;10.45;8.68;;;18.60;99.90;;;;;;7337806;32;20227;-56
2023/06/09 05:24:09;;;;;;;14.87;8.35;;;19.20;99.90;;;;;;7338948;32;20198;-56
2023/06/09 05:28:10;;;;;;;9.30;8.07;;;19.60;99.90;;;;;;7333206;32;20126;-56
2023/06/09 05:32:12;;;;;;;9.52;7.68;;;19.90;99.90;;;;;;7334672;32;20111;-56
2023/06/09 05:36:14;;;;;;;9.05;7.50;;;19.70;99.90;;;;;;7337407;32;20135;-60
2023/06/09 05:40:16;;;;;;;8.45;7.47;;;19.40;99.90;;;;;;7338554;32;20112;-56
2023/06/09 05:44:20;;;;;;;10.63;7.95;;;19.20;99.90;;;;;;7340326;32;20209;-57
2023/06/09 05:48:22;;;;;;;8.65;7.75;;;19.00;99.90;;;;;;7335188;32;20291;-56
2023/06/09 05:52:24;;;;;;;10.07;7.57;;;18.90;99.90;;;;;;7334453;32;20889;-57
2023/06/09 05:56:26;;;;;;;8.55;7.62;;;18.90;99.90;;;;;;7334216;32;20115;-57
2023/06/09 06:00:29;;;;;;;11.18;7.55;;;18.80;99.90;;;;;;7336613;32;20111;-56
2023/06/09 06:04:31;;;;;;;9.52;8.15;;;18.90;99.90;;;;;;7338281;32;20294;-56
2023/06/09 06:08:33;;;;;;;9.48;7.07;;;19.00;99.90;;;;;;7343036;32;20521;-57
2023/06/09 06:12:35;;;;;;;9.57;7.95;;;19.10;99.90;;;;;;7345841;32;20215;-56
2023/06/09 06:16:37;;;;;;;9.50;8.55;;;19.40;99.90;;;;;;7342952;32;20103;-56
2023/06/09 06:20:38;;;;;;;8.82;7.87;;;19.60;99.90;;;;;;7342718;32;20135;-56
2023/06/09 06:24:40;;;;;;;8.35;7.43;;;19.80;99.90;;;;;;7339565;32;20221;-54
2023/06/09 06:28:42;;;;;;;15.02;7.75;;;20.00;99.90;;;;;;7345932;32;20563;-57
2023/06/09 06:32:51;;;;;;;8.00;7.30;;;20.10;99.90;;;;;;7346426;32;20842;-57
2023/06/09 06:36:54;;;;;;;8.18;7.40;;;20.40;99.90;;;;;;7345952;32;20118;-56
2023/06/09 06:40:56;;;;;;;9.63;7.68;;;20.60;99.90;;;;;;7344875;32;20125;-56
2023/06/09 06:44:57;;;;;;;9.00;6.57;;;20.70;99.90;;;;;;7343699;32;20222;-57
2023/06/09 06:49:00;;;;;;;11.60;6.87;;;20.90;99.90;;;;;;7347177;32;20103;-57
2023/06/09 06:53:03;;;;;;;12.32;7.22;;;20.90;99.90;;;;;;7338166;32;20106;-57
2023/06/09 06:57:05;;;;;;;9.52;7.00;;;20.90;99.90;;;;;;7339097;32;20463;-55
2023/06/09 07:01:07;;;;;;;7.47;6.75;;;20.90;99.90;;;;;;7338739;32;20269;-56
2023/06/09 07:05:09;;;;;;;7.03;6.32;;;21.20;99.90;;;;;;7340995;32;20547;-57
2023/06/09 07:09:10;;;;;;;8.07;6.28;;;21.40;99.90;;;;;;7341997;32;20222;-57
2023/06/09 07:13:12;;;;;;;8.90;6.65;;;21.50;99.90;;;;;;7338315;32;20166;-57
2023/06/09 07:17:14;;;;;;;6.97;6.00;;;21.60;99.90;;;;;;7339177;32;20189;-56
2023/06/09 07:21:16;;;;;;;5.87;5.15;;;21.90;99.90;;;;;;7337092;32;20769;-57
2023/06/09 07:25:19;;;;;;;10.52;6.20;;;22.00;99.90;;;;;;7344608;32;20115;-57
2023/06/09 07:29:21;;;;;;;8.20;5.95;;;22.10;99.90;;;;;;7340236;32;20575;-57
2023/06/09 07:33:22;;;;;;;6.93;5.70;;;22.30;99.90;;;;;;7336623;32;20115;-57
2023/06/09 07:37:25;;;;;;;7.03;5.97;;;22.60;99.90;;;;;;7338972;32;20118;-57
2023/06/09 07:41:28;;;;;;;8.57;6.00;;;22.90;99.90;;;;;;7344338;32;20309;-57
2023/06/09 07:45:30;;;;;;;12.18;5.40;;;22.90;99.90;;;;;;7341267;32;20282;-57
2023/06/09 07:49:32;;;;;;;8.18;5.45;;;23.10;99.90;;;;;;7344604;32;20134;-57
2023/06/09 07:53:35;;;;;;;8.23;5.25;;;22.90;99.90;;;;;;7345364;32;20225;-56
2023/06/09 07:57:37;;;;;;;9.00;5.30;;;23.20;99.90;;;;;;7335107;32;20103;-58
2023/06/09 08:01:39;;;;;;;6.72;4.68;;;23.50;99.90;;;;;;7339957;32;20159;-58
2023/06/09 08:05:41;;;;;;;6.43;5.22;;;23.70;99.90;;;;;;7346303;32;20226;-56
2023/06/09 08:09:43;;;;;;;5.40;4.55;;;24.10;99.90;;;;;;7336216;32;20185;-58
2023/06/09 08:13:45;;;;;;;6.60;4.28;;;24.00;99.90;;;;;;7334136;32;20200;-57
2023/06/09 08:17:47;;;;;;;6.47;4.70;;;24.40;99.90;;;;;;7346555;32;20103;-57
2023/06/09 08:21:49;;;;;;;7.03;4.37;;;24.70;99.90;;;;;;7342173;32;21026;-58
2023/06/09 08:25:51;;;;;;;8.32;4.47;;;24.90;99.90;;;;;;7340765;32;20329;-58
2023/06/09 08:29:53;;;;;;;4.55;3.90;;;25.20;99.90;;;;;;7339016;32;20202;-57
2023/06/09 08:33:55;;;;;;;8.38;4.20;;;25.70;99.90;;;;;;7341363;32;20430;-57
2023/06/09 08:37:57;;;;;;;6.72;4.20;;;25.80;99.90;;;;;;7326773;32;20163;-58
2023/06/09 08:42:06;;;;;;;4.75;4.25;;;26.00;99.90;;;;;;7343060;32;20126;-59
2023/06/09 08:46:12;;;;;;;8.05;3.70;;;26.10;99.90;;;;;;7340482;32;20099;-58
2023/06/09 08:50:16;;;;;;;8.27;4.37;;;26.90;99.90;;;;;;7335838;32;20111;-58
2023/06/09 08:54:18;;;;;;;5.10;4.25;;;27.00;99.90;;;;;;7329517;32;20130;-58
2023/06/09 08:58:21;;;;;;;3.90;3.47;;;27.60;99.90;;;;;;7340894;32;20532;-58
2023/06/09 09:02:24;;;;;;;6.62;4.50;;;27.80;99.20;;;;;;7337244;32;20122;-56
2023/06/09 09:06:26;;;;;;;7.10;4.50;;;27.90;98.60;;;;;;7332204;32;20215;-57
2023/06/09 09:10:28;;;;;;;5.45;4.50;;;28.10;98.10;;;;;;7337241;32;20970;-57
2023/06/09 09:14:30;;;;;;;5.47;4.05;;;28.30;97.80;;;;;;7331590;32;20107;-58
2023/06/09 09:18:34;;;;;;;6.05;4.10;;;28.70;96.90;;;;;;7336455;32;20126;-57
2023/06/09 09:22:50;;;;;;;4.93;3.62;;;28.70;95.50;;;;;;7337283;32;20466;-58
2023/06/09 09:26:55;;;;;;;4.75;3.78;;;29.10;92.00;;;;;;7340221;32;20226;-57
2023/06/09 09:30:57;;;;;;;6.05;3.97;;;29.60;91.90;;;;;;7342124;32;20149;-58
2023/06/09 09:34:59;;;;;;;4.50;3.75;;;29.40;86.60;;;;;;7338276;32;20135;-56
2023/06/09 09:39:06;;;;;;;5.85;4.25;;;29.50;84.30;;;;;;7335356;32;20566;-57
2023/06/09 09:43:15;;;;;;;3.42;3.12;;;29.70;85.50;;;;;;7346939;32;20218;-59
2023/06/09 09:47:18;;;;;;;7.00;3.08;;;29.40;78.70;;;;;;7346023;32;20129;-58
2023/06/09 09:51:20;;;;;;;5.97;3.28;;;29.50;80.10;;;;;;7338748;32;20127;-58
2023/06/09 09:55:24;;;;;;;3.62;3.12;;;29.70;76.80;;;;;;7340235;32;20326;-58
2023/06/09 09:59:26;;;;;;;10.73;3.05;;;28.50;73.40;;;;;;7333946;32;20115;-58
2023/06/09 10:03:28;;;;;;;6.53;3.10;;;29.20;76.00;;;;;;7345182;32;20233;-57
2023/06/09 10:07:34;;;;;;;3.42;2.80;;;28.90;75.60;;;;;;7340076;32;20287;-58
2023/06/09 10:11:38;;;;;;;7.10;3.50;;;29.00;75.30;;;;;;7339086;32;20127;-57
2023/06/09 10:15:44;;;;;;;3.53;2.78;;;29.30;75.00;;;;;;7342344;32;22044;-58
2023/06/09 10:19:50;;;;;;;6.05;2.92;;;30.20;72.70;;;;;;7337315;32;20586;-56
2023/06/09 10:23:53;;;;;;;3.70;2.97;;;29.70;73.30;;;;;;7346597;32;20206;-58
2023/06/09 10:27:55;;;;;;;2.95;2.55;;;29.70;68.90;;;;;;7344356;32;20238;-58
2023/06/09 10:31:57;;;;;;;3.40;3.10;;;30.00;70.30;;;;;;7346720;32;20126;-58
2023/06/09 10:36:08;;;;;;;5.80;3.40;;;29.70;67.70;;;;;;7333793;32;20232;-57
2023/06/09 10:40:23;;;;;;;5.10;3.22;;;29.10;70.40;;;;;;7345221;32;20153;-57
2023/06/09 10:44:45;;;;;;;4.68;3.00;;;29.30;68.20;;;;;;7342148;32;20107;-56
2023/06/09 10:48:50;;;;;;;5.50;3.15;;;29.20;72.10;;;;;;7335367;32;20141;-56
2023/06/09 10:52:57;;;;;;;3.63;3.00;;;30.10;72.00;;;;;;7343129;32;20194;-57
2023/06/09 10:57:00;;;;;;;;;;;30.00;69.70;;;;;;7341560;32;20095;-56
2023/06/09 11:01:09;;;;;;;3.87;3.37;;;30.00;70.70;;;;;;7345247;32;20143;-56
2023/06/09 11:05:11;;;;;;;4.00;3.45;;;29.70;73.00;;;;;;7342032;32;20298;-57
2023/06/09 11:09:14;;;;;;;5.12;2.92;;;29.30;76.10;;;;;;7342133;32;20103;-56
2023/06/09 11:13:36;;;;;;;4.10;3.70;;;28.70;73.80;;;;;;7344851;32;20131;-55
2023/06/09 11:17:48;;;;;;;4.15;3.42;;;28.60;75.10;;;;;;7343513;32;20122;-57
2023/06/09 11:22:02;;;;;;;4.12;3.20;;;28.70;74.20;;;;;;7337229;32;20272;-57
2023/06/09 11:26:20;;;;;;;3.95;3.22;;;27.60;74.70;;;;;;7344478;32;20152;-55
2023/06/09 11:30:24;;;;;;;4.55;3.25;;;27.30;77.80;;;;;;7339893;32;20257;-55
2023/06/09 11:34:59;;;;;;;6.87;3.60;;;27.60;75.90;;;;;;7347260;32;20170;-56
2023/06/09 11:39:04;;;;;;;4.53;3.40;;;27.20;75.60;;;;;;7327712;32;20225;-56
2023/06/09 11:43:07;;;;;;;3.05;2.78;;;27.60;73.90;;;;;;7338041;32;20126;-56
2023/06/09 11:47:29;;;;;;;5.53;3.00;;;28.60;81.50;;;;;;7336612;32;20099;-57
2023/06/09 11:52:00;;;;;;;8.00;3.20;;;29.40;72.90;;;;;;7328572;32;20502;-56
2023/06/09 11:56:06;;;;;;;5.93;3.25;;;29.20;71.00;;;;;;7341248;32;20270;-56
2023/06/09 12:00:12;;;;;;;5.95;3.00;;;29.50;70.50;;;;;;7339845;32;20194;-56
2023/06/09 12:04:15;;;;;;;4.12;2.80;;;30.40;70.30;;;;;;7343986;32;20191;-57
2023/06/09 12:08:18;;;;;;;7.82;3.00;;;30.80;66.90;;;;;;7334898;32;20116;-57
2023/06/09 12:12:20;;;;;;;3.15;2.67;;;30.10;63.70;;;;;;7331792;32;20153;-56
2023/06/09 12:16:23;;;;;;;4.40;3.00;;;30.60;62.80;;;;;;7339063;32;20134;-57
2023/06/09 12:20:31;;;;;;;8.20;3.35;;;29.90;61.50;;;;;;7338026;32;20107;-57
2023/06/09 12:24:33;;;;;;;3.75;2.80;;;31.10;69.30;;;;;;7336995;32;20326;-56
2023/06/09 12:28:35;;;;;;;4.47;3.05;;;32.60;62.00;;;;;;7334934;32;20125;-55
2023/06/09 12:32:38;;;;;;;14.02;9.90;;;33.10;61.00;;;;;;7342164;32;20129;-57
2023/06/09 12:36:40;;;;;;;5.05;2.75;;;33.90;59.70;;;;;;7340756;32;20249;-57
2023/06/09 12:40:50;;;;;;;3.55;2.92;;;34.00;55.50;;;;;;7326615;32;20191;-57
2023/06/09 12:44:57;;;;;;;3.30;2.80;;;31.30;56.10;;;;;;7336075;32;20161;-57
2023/06/09 12:49:06;;;;;;;4.95;2.75;;;30.30;56.90;;;;;;7341705;32;20153;-58
2023/06/09 12:53:09;;;;;;;4.93;3.10;;;30.90;63.00;;;;;;7345344;32;20584;-59
2023/06/09 12:57:11;;;;;;;3.10;2.58;;;32.60;58.20;;;;;;7340656;32;20153;-58
2023/06/09 13:01:14;;;;;;;7.72;2.90;;;33.20;54.40;;;;;;7341128;32;20194;-58
2023/06/09 13:05:15;;;;;;;3.45;2.75;;;31.70;57.20;;;;;;7343199;32;20210;-58
2023/06/09 13:09:18;;;;;;;8.07;3.90;;;31.00;57.00;;;;;;7339292;32;20107;-58
2023/06/09 13:13:20;;;;;;;4.60;3.45;;;31.90;58.90;;;;;;7342472;32;20359;-58
2023/06/09 13:17:22;;;;;;;4.55;3.10;;;31.20;56.10;;;;;;7340751;32;20180;-58
2023/06/09 13:21:24;;;;;;;4.28;3.22;;;30.70;58.70;;;;;;7343658;32;20129;-59
2023/06/09 13:25:46;;;;;;;4.75;3.45;;;30.60;56.30;;;;;;7340928;32;20224;-58
2023/06/09 13:29:48;;;;;;;7.93;6.62;;;29.70;58.80;;;;;;7342620;32;20422;-58
2023/06/09 13:33:50;;;;;;;6.07;4.10;;;28.70;62.40;;;;;;7334216;32;20106;-59
2023/06/09 13:37:52;;;;;;;6.85;4.28;;;28.30;68.70;;;;;;7336076;32;20149;-58
2023/06/09 13:41:54;;;;;;;7.78;4.18;;;28.70;71.00;;;;;;7340475;32;20131;-58
2023/06/09 13:45:55;;;;;;;5.90;4.07;;;28.60;72.00;;;;;;7341434;32;20198;-57
2023/06/09 13:49:57;;;;;;;6.82;4.07;;;28.50;73.80;;;;;;7334164;32;20133;-57
2023/06/09 13:53:59;;;;;;;5.28;3.80;;;28.80;73.50;;;;;;7333770;32;20278;-58
2023/06/09 13:58:01;;;;;;;8.48;3.95;;;29.50;72.40;;;;;;7339014;32;20780;-58
2023/06/09 14:02:04;;;;;;;5.93;4.20;;;29.60;68.70;;;;;;7335555;32;20258;-58
2023/06/09 14:06:06;;;;;;;5.80;4.00;;;30.20;66.90;;;;;;7336403;32;20103;-58
2023/06/09 14:10:10;;;;;;;7.93;5.03;;;29.50;66.70;;;;;;7328120;32;20270;-58
2023/06/09 14:14:12;;;;;;;15.57;4.37;;;30.20;64.80;;;;;;7338268;32;20241;-58
2023/06/09 14:18:14;;;;;;;4.70;3.78;;;31.00;62.90;;;;;;7332938;32;20134;-57
2023/06/09 14:22:16;;;;;;;6.20;3.62;;;31.40;62.70;;;;;;7335661;32;20868;-56
2023/06/09 14:26:18;;;;;;;6.37;4.03;;;31.30;60.60;;;;;;7333862;32;20187;-57
2023/06/09 14:30:21;;;;;;;8.00;4.35;;;31.10;62.60;;;;;;7346581;32;20115;-57
2023/06/09 14:34:23;;;;;;;7.70;4.10;;;31.20;62.10;;;;;;7345743;32;20313;-57
2023/06/09 14:38:24;;;;;;;6.62;4.32;;;31.60;63.10;;;;;;7343064;32;20135;-57
2023/06/09 14:42:26;;;;;;;5.35;4.43;;;30.70;62.80;;;;;;7346335;32;20905;-57
2023/06/09 14:46:28;;;;;;;5.65;4.22;;;29.90;64.00;;;;;;7346284;32;21028;-58
2023/06/09 14:50:38;;;;;;;6.75;4.82;;;29.80;65.80;;;;;;7336956;32;20252;-58
2023/06/09 14:54:40;;;;;;;12.73;4.78;;;28.90;66.80;;;;;;7343042;32;20143;-57
2023/06/09 14:58:42;;;;;;;5.37;4.45;;;27.90;70.60;;;;;;7340587;32;20573;-57
2023/06/09 15:02:43;;;;;;;10.68;6.70;;;27.50;72.60;;;;;;7347583;32;20281;-57
2023/06/09 15:06:45;;;;;;;9.10;4.90;;;27.40;74.00;;;;;;7340822;32;20494;-58
2023/06/09 15:10:48;;;;;;;6.00;4.60;;;27.40;75.20;;;;;;7344362;32;20466;-58
2023/06/09 15:14:50;;;;;;;6.75;4.10;;;27.90;73.00;;;;;;7345139;32;20282;-58
2023/06/09 15:19:01;;;;;;;6.50;4.90;;;28.20;75.00;;;;;;7328855;32;20587;-58
2023/06/09 15:23:05;;;;;;;8.85;5.37;;;28.40;71.30;;;;;;7341312;32;20217;-58
2023/06/09 15:27:07;;;;;;;5.75;4.55;;;27.90;71.50;;;;;;7333686;32;20239;-57
2023/06/09 15:31:09;;;;;;;6.90;5.22;;;27.30;73.70;;;;;;7345048;32;20237;-58
2023/06/09 15:35:12;;;;;;;8.93;4.60;;;26.90;77.30;;;;;;7344164;32;20111;-59
2023/06/09 15:39:14;;;;;;;8.23;5.43;;;26.80;76.60;;;;;;7337703;32;20147;-58
2023/06/09 15:43:18;;;;;;;8.35;5.50;;;26.70;80.10;;;;;;7335984;32;20107;-58
2023/06/09 15:47:20;;;;;;;5.87;5.37;;;26.50;79.90;;;;;;7336397;32;20104;-58
2023/06/09 15:51:22;;;;;;;9.57;5.12;;;26.50;76.40;;;;;;7340316;32;20140;-58
2023/06/09 15:55:24;;;;;;;6.32;5.00;;;26.40;76.70;;;;;;7344124;32;20234;-58
2023/06/09 15:59:30;;;;;;;5.30;4.68;;;26.50;78.90;;;;;;7341020;32;20221;-58
2023/06/09 16:03:33;;;;;;;9.65;5.05;;;26.50;81.30;;;;;;7341481;32;20256;-58
2023/06/09 16:07:35;;;;;;;9.00;5.53;;;26.50;81.40;;;;;;7338437;32;20629;-58
2023/06/09 16:11:37;;;;;;;9.82;5.72;;;26.70;81.20;;;;;;7347022;32;20099;-55
2023/06/09 16:15:40;;;;;;;8.25;5.20;;;26.80;80.50;;;;;;7346099;32;20144;-56
2023/06/09 16:19:42;;;;;;;8.80;5.45;;;26.90;79.30;;;;;;7337746;32;20158;-56
2023/06/09 16:23:43;;;;;;;6.12;5.20;;;27.20;77.10;;;;;;7339677;32;20309;-56
2023/06/09 16:27:45;;;;;;;7.45;5.20;;;27.10;74.60;;;;;;7341418;32;20099;-56
2023/06/09 16:31:47;;;;;;;7.32;5.50;;;27.00;74.10;;;;;;7340726;32;20281;-57
2023/06/09 16:35:49;;;;;;;7.07;4.93;;;27.10;74.60;;;;;;7333779;32;20150;-56
2023/06/09 16:39:50;;;;;;;12.50;8.45;;;27.10;74.70;;;;;;7331173;32;20337;-56
2023/06/09 16:43:52;;;;;;;7.97;5.05;;;27.20;74.40;;;;;;7338862;32;20107;-57
2023/06/09 16:47:55;;;;;;;7.87;4.75;;;27.00;75.20;;;;;;7337532;32;20647;-58
2023/06/09 16:51:58;;;;;;;8.70;5.18;;;27.00;74.30;;;;;;7342522;32;20529;-55
2023/06/09 16:56:00;;;;;;;6.85;5.05;;;27.00;74.50;;;;;;7330097;32;20138;-55
2023/06/09 17:00:04;;;;;;;5.75;5.03;;;26.90;75.40;;;;;;7341678;32;20454;-56
2023/06/09 17:04:05;;;;;;;7.95;5.12;;;27.00;75.40;;;;;;7302146;32;20666;-58
2023/06/09 17:08:07;;;;;;;9.18;5.90;;;26.80;74.90;;;;;;7344597;32;20106;-56
2023/06/09 17:12:09;;;;;;;6.60;5.95;;;26.80;75.30;;;;;;7342250;32;20108;-56
2023/06/09 17:16:11;;;;;;;6.43;4.70;;;26.80;74.90;;;;;;7347326;32;20258;-56
2023/06/09 17:20:13;;;;;;;9.52;5.30;;;27.00;74.80;;;;;;7346763;32;20142;-56
2023/06/09 17:24:15;;;;;;;6.90;5.20;;;27.10;74.50;;;;;;7330157;32;20581;-56
2023/06/09 17:28:17;;;;;;;8.05;4.75;;;26.90;72.00;;;;;;7333619;32;20219;-56
2023/06/09 17:32:18;;;;;;;9.80;4.95;;;27.00;72.30;;;;;;7328257;32;20191;-58
2023/06/09 17:36:21;;;;;;;8.60;4.78;;;26.80;71.60;;;;;;7337045;32;20339;-57
2023/06/09 17:40:23;;;;;;;9.73;5.03;;;26.60;73.00;;;;;;7335982;32;20254;-63
2023/06/09 17:44:24;;;;;;;6.22;5.45;;;26.50;73.50;;;;;;7339798;32;20203;-63
2023/06/09 17:48:26;;;;;;;9.35;7.93;;;26.20;75.60;;;;;;7339512;32;20286;-66
2023/06/09 17:52:28;;;;;;;10.85;6.78;;;25.90;76.90;;;;;;7336051;32;20635;-67
2023/06/09 17:56:29;;;;;;;6.75;5.62;;;25.70;78.50;;;;;;7333255;32;20811;-56
2023/06/09 18:00:31;;;;;;;7.53;5.47;;;25.40;78.90;;;;;;7342095;32;20199;-57
2023/06/09 18:04:33;;;;;;;6.62;4.60;;;25.40;79.20;;;;;;7350107;32;20104;-56
2023/06/09 18:08:35;;;;;;;7.20;5.37;;;25.30;79.40;;;;;;7348790;32;20102;-57
2023/06/09 18:12:37;;;;;;;7.40;4.80;;;25.40;78.10;;;;;;7352168;32;20110;-56
2023/06/09 18:16:39;;;;;;;5.72;4.85;;;25.40;79.20;;;;;;7349293;32;20218;-56
2023/06/09 18:20:40;;;;;;;7.05;4.55;;;25.40;77.40;;;;;;7349346;32;20137;-56
2023/06/09 18:24:42;;;;;;;8.70;4.95;;;25.30;78.00;;;;;;7347140;32;20107;-56
2023/06/09 18:28:44;;;;;;;9.15;5.22;;;25.20;78.20;;;;;;7338563;32;20190;-58
2023/06/09 18:32:46;;;;;;;6.20;4.70;;;25.10;79.70;;;;;;7343486;32;20133;-57
2023/06/09 18:36:49;;;;;;;8.77;5.37;;;24.90;80.40;;;;;;7343849;32;20286;-57
2023/06/09 18:40:54;;;;;;;8.50;5.20;;;24.90;82.50;;;;;;7348778;32;20229;-56
2023/06/09 18:44:56;;;;;;;10.45;4.87;;;24.90;84.10;;;;;;7345530;32;20184;-57
2023/06/09 18:48:58;;;;;;;7.20;5.53;;;24.80;85.60;;;;;;7343370;32;20178;-56
2023/06/09 18:53:02;;;;;;;7.43;5.60;;;24.70;86.90;;;;;;7341770;32;20226;-57
2023/06/09 18:57:06;;;;;;;8.75;5.43;;;24.60;88.70;;;;;;7338851;32;20185;-57
2023/06/09 19:01:07;;;;;;;8.40;5.93;;;24.60;90.10;;;;;;7345985;32;20182;-57
2023/06/09 19:05:10;;;;;;;5.85;5.28;;;24.50;90.90;;;;;;7344107;32;20110;-57
2023/06/09 19:09:12;;;;;;;9.65;5.68;;;24.30;92.10;;;;;;7343970;32;20095;-57
2023/06/09 19:13:14;;;;;;;7.43;5.30;;;24.30;92.30;;;;;;7340112;32;20513;-58
2023/06/09 19:17:16;;;;;;;7.90;6.07;;;24.30;92.90;;;;;;7343008;32;20254;-57
2023/06/09 19:21:18;;;;;;;9.38;5.95;;;24.10;93.80;;;;;;7346704;32;20175;-57
2023/06/09 19:25:20;;;;;;;8.52;5.47;;;24.00;95.90;;;;;;7340385;32;21000;-57
2023/06/09 19:29:22;;;;;;;6.90;6.20;;;23.90;97.10;;;;;;7345061;32;20576;-57
2023/06/09 19:33:23;;;;;;;17.12;14.07;;;23.80;99.80;;;;;;7342111;32;20186;-57
2023/06/09 19:37:25;;;;;;;8.40;5.05;;;23.70;99.40;;;;;;7356846;32;20667;-57
2023/06/09 19:41:27;;;;;;;7.45;5.97;;;23.50;99.90;;;;;;7339180;32;20200;-57
2023/06/09 19:45:29;;;;;;;9.77;6.03;;;23.40;99.90;;;;;;7339448;32;20107;-57
2023/06/09 19:49:31;;;;;;;8.52;6.47;;;23.20;99.90;;;;;;7341853;32;20160;-57
2023/06/09 19:53:33;;;;;;;7.07;5.45;;;23.20;99.90;;;;;;7344088;32;20190;-57
2023/06/09 19:57:34;;;;;;;11.02;5.32;;;23.10;99.90;;;;;;7338713;32;20206;-56
2023/06/09 20:01:36;;;;;;;8.68;5.32;;;23.10;99.90;;;;;;7339126;32;20507;-55
2023/06/09 20:05:38;;;;;;;5.93;5.30;;;23.00;99.90;;;;;;7338654;32;20099;-56
2023/06/09 20:09:39;;;;;;;8.85;5.40;;;23.00;99.90;;;;;;7339918;32;20188;-55
2023/06/09 20:13:41;;;;;;;7.62;5.95;;;23.00;99.90;;;;;;7337776;32;20329;-55
2023/06/09 20:17:43;;;;;;;7.78;5.32;;;23.10;99.90;;;;;;7340019;32;20099;-55
2023/06/09 20:21:45;;;;;;;8.25;5.40;;;23.20;99.90;;;;;;7342693;32;20224;-55
2023/06/09 20:25:50;;;;;;;10.45;5.75;;;23.30;99.90;;;;;;7338728;32;20201;-55
2023/06/09 20:29:51;;;;;;;9.45;5.22;;;23.20;99.90;;;;;;7342162;32;20248;-56
2023/06/09 20:33:54;;;;;;;10.18;5.32;;;23.30;99.90;;;;;;7341774;32;20146;-56
2023/06/09 20:37:56;;;;;;;8.68;5.00;;;23.20;99.90;;;;;;7338013;32;20662;-56
2023/06/09 20:41:57;;;;;;;11.93;6.03;;;23.10;99.90;;;;;;7336580;32;20200;-56
2023/06/09 20:46:02;;;;;;;6.70;5.50;;;23.00;99.90;;;;;;7344024;32;20218;-55
2023/06/09 20:50:04;;;;;;;8.02;5.32;;;22.80;99.90;;;;;;7339309;32;20107;-55
2023/06/09 20:54:06;;;;;;;11.00;5.75;;;22.80;99.90;;;;;;7339244;32;20175;-55
2023/06/09 20:58:09;;;;;;;9.48;5.60;;;22.60;99.90;;;;;;7340544;32;20515;-56
2023/06/09 21:02:11;;;;;;;11.02;6.22;;;22.40;99.90;;;;;;7338170;32;20518;-56